sensor_id;sensor_type;location;lat;lon;timestamp;P1;durP1;ratioP1;P2;durP2;ratioP2
9461;SDS011;4769;42.660;23.262;2023-07-13T00:01:06;7.00;;;4.47;;
9461;SDS011;4769;42.660;23.262;2023-07-13T00:03:32;5.13;;;4.63;;
9461;SDS011;4769;42.660;23.262;2023-07-13T00:05:58;7.10;;;4.70;;
9461;SDS011;4769;42.660;23.262;2023-07-13T00:08:24;4.95;;;4.45;;
9461;SDS011;4769;42.660;23.262;2023-07-13T00:10:51;8.40;;;4.90;;
9461;SDS011;4769;42.660;23.262;2023-07-13T00:13:17;10.20;;;4.65;;
9461;SDS011;4769;42.660;23.262;2023-07-13T00:15:45;7.15;;;4.53;;
9461;SDS011;4769;42.660;23.262;2023-07-13T00:18:11;5.65;;;4.00;;
9461;SDS011;4769;42.660;23.262;2023-07-13T00:20:37;5.35;;;4.28;;
9461;SDS011;4769;42.660;23.262;2023-07-13T00:23:02;6.10;;;4.68;;
9461;SDS011;4769;42.660;23.262;2023-07-13T00:25:28;5.75;;;4.38;;
9461;SDS011;4769;42.660;23.262;2023-07-13T00:27:54;6.38;;;4.57;;
9461;SDS011;4769;42.660;23.262;2023-07-13T00:30:20;5.43;;;4.75;;
9461;SDS011;4769;42.660;23.262;2023-07-13T00:32:48;9.52;;;4.68;;
9461;SDS011;4769;42.660;23.262;2023-07-13T00:35:15;5.00;;;4.50;;
9461;SDS011;4769;42.660;23.262;2023-07-13T00:37:41;5.43;;;4.35;;
9461;SDS011;4769;42.660;23.262;2023-07-13T00:40:07;7.80;;;4.35;;
9461;SDS011;4769;42.660;23.262;2023-07-13T00:42:35;5.18;;;4.40;;
9461;SDS011;4769;42.660;23.262;2023-07-13T00:45:02;6.22;;;4.60;;
9461;SDS011;4769;42.660;23.262;2023-07-13T00:47:29;5.32;;;4.50;;
9461;SDS011;4769;42.660;23.262;2023-07-13T00:49:57;6.70;;;4.35;;
9461;SDS011;4769;42.660;23.262;2023-07-13T00:52:24;5.38;;;4.00;;
9461;SDS011;4769;42.660;23.262;2023-07-13T00:54:49;6.85;;;4.63;;
9461;SDS011;4769;42.660;23.262;2023-07-13T00:57:16;6.90;;;4.80;;
9461;SDS011;4769;42.660;23.262;2023-07-13T00:59:47;7.00;;;4.63;;
9461;SDS011;4769;42.660;23.262;2023-07-13T01:02:14;7.70;;;4.90;;
9461;SDS011;4769;42.660;23.262;2023-07-13T01:04:40;5.38;;;4.63;;
9461;SDS011;4769;42.660;23.262;2023-07-13T01:07:09;6.50;;;4.90;;
9461;SDS011;4769;42.660;23.262;2023-07-13T01:09:35;6.85;;;4.80;;
9461;SDS011;4769;42.660;23.262;2023-07-13T01:12:01;5.55;;;4.45;;
9461;SDS011;4769;42.660;23.262;2023-07-13T01:14:27;4.70;;;4.20;;
9461;SDS011;4769;42.660;23.262;2023-07-13T01:16:53;5.82;;;4.80;;
9461;SDS011;4769;42.660;23.262;2023-07-13T01:19:23;5.45;;;4.70;;
9461;SDS011;4769;42.660;23.262;2023-07-13T01:21:59;5.97;;;4.95;;
9461;SDS011;4769;42.660;23.262;2023-07-13T01:24:25;6.60;;;4.70;;
9461;SDS011;4769;42.660;23.262;2023-07-13T01:26:50;7.13;;;4.35;;
9461;SDS011;4769;42.660;23.262;2023-07-13T01:29:16;5.25;;;4.75;;
9461;SDS011;4769;42.660;23.262;2023-07-13T01:31:42;6.40;;;4.68;;
9461;SDS011;4769;42.660;23.262;2023-07-13T01:34:07;5.95;;;5.35;;
9461;SDS011;4769;42.660;23.262;2023-07-13T01:36:33;6.18;;;4.20;;
9461;SDS011;4769;42.660;23.262;2023-07-13T01:39:01;6.68;;;4.30;;
9461;SDS011;4769;42.660;23.262;2023-07-13T01:41:27;9.43;;;5.50;;
9461;SDS011;4769;42.660;23.262;2023-07-13T01:43:53;6.22;;;5.57;;
9461;SDS011;4769;42.660;23.262;2023-07-13T01:46:18;6.47;;;5.22;;
9461;SDS011;4769;42.660;23.262;2023-07-13T01:48:44;5.93;;;4.57;;
9461;SDS011;4769;42.660;23.262;2023-07-13T01:51:10;7.28;;;4.55;;
9461;SDS011;4769;42.660;23.262;2023-07-13T01:53:35;5.53;;;4.50;;
9461;SDS011;4769;42.660;23.262;2023-07-13T01:56:04;6.35;;;5.20;;
9461;SDS011;4769;42.660;23.262;2023-07-13T01:58:30;5.53;;;5.00;;
9461;SDS011;4769;42.660;23.262;2023-07-13T02:00:55;6.75;;;5.05;;
9461;SDS011;4769;42.660;23.262;2023-07-13T02:03:21;6.95;;;4.70;;
9461;SDS011;4769;42.660;23.262;2023-07-13T02:05:47;5.28;;;4.60;;
9461;SDS011;4769;42.660;23.262;2023-07-13T02:08:12;6.28;;;5.10;;
9461;SDS011;4769;42.660;23.262;2023-07-13T02:10:38;6.93;;;5.35;;
9461;SDS011;4769;42.660;23.262;2023-07-13T02:13:06;5.43;;;4.63;;
9461;SDS011;4769;42.660;23.262;2023-07-13T02:15:33;7.43;;;4.95;;
9461;SDS011;4769;42.660;23.262;2023-07-13T02:17:58;7.18;;;5.10;;
9461;SDS011;4769;42.660;23.262;2023-07-13T02:20:24;5.97;;;5.40;;
9461;SDS011;4769;42.660;23.262;2023-07-13T02:22:50;6.55;;;5.00;;
9461;SDS011;4769;42.660;23.262;2023-07-13T02:25:16;6.57;;;5.45;;
9461;SDS011;4769;42.660;23.262;2023-07-13T02:27:41;5.68;;;5.03;;
9461;SDS011;4769;42.660;23.262;2023-07-13T02:30:10;9.27;;;5.18;;
9461;SDS011;4769;42.660;23.262;2023-07-13T02:32:36;6.05;;;4.82;;
9461;SDS011;4769;42.660;23.262;2023-07-13T02:35:02;6.35;;;5.00;;
9461;SDS011;4769;42.660;23.262;2023-07-13T02:37:28;7.45;;;5.65;;
9461;SDS011;4769;42.660;23.262;2023-07-13T02:39:54;7.35;;;5.15;;
9461;SDS011;4769;42.660;23.262;2023-07-13T02:42:19;5.95;;;5.35;;
9461;SDS011;4769;42.660;23.262;2023-07-13T02:44:45;6.90;;;5.60;;
9461;SDS011;4769;42.660;23.262;2023-07-13T02:47:13;6.72;;;5.53;;
9461;SDS011;4769;42.660;23.262;2023-07-13T02:49:39;7.07;;;5.72;;
9461;SDS011;4769;42.660;23.262;2023-07-13T02:52:05;10.60;;;6.47;;
9461;SDS011;4769;42.660;23.262;2023-07-13T02:54:31;6.22;;;5.57;;
9461;SDS011;4769;42.660;23.262;2023-07-13T02:56:57;6.45;;;5.50;;
9461;SDS011;4769;42.660;23.262;2023-07-13T02:59:22;8.48;;;5.85;;
9461;SDS011;4769;42.660;23.262;2023-07-13T03:01:48;6.38;;;5.40;;
9461;SDS011;4769;42.660;23.262;2023-07-13T03:04:17;7.97;;;6.30;;
9461;SDS011;4769;42.660;23.262;2023-07-13T03:06:43;6.13;;;5.50;;
9461;SDS011;4769;42.660;23.262;2023-07-13T03:09:08;8.32;;;5.95;;
9461;SDS011;4769;42.660;23.262;2023-07-13T03:11:34;9.85;;;5.75;;
9461;SDS011;4769;42.660;23.262;2023-07-13T03:14:00;8.40;;;5.47;;
9461;SDS011;4769;42.660;23.262;2023-07-13T03:16:25;7.18;;;5.43;;
9461;SDS011;4769;42.660;23.262;2023-07-13T03:18:51;5.93;;;5.22;;
9461;SDS011;4769;42.660;23.262;2023-07-13T03:21:19;7.93;;;5.20;;
9461;SDS011;4769;42.660;23.262;2023-07-13T03:23:45;6.22;;;5.63;;
9461;SDS011;4769;42.660;23.262;2023-07-13T03:26:12;7.35;;;5.82;;
9461;SDS011;4769;42.660;23.262;2023-07-13T03:28:42;7.80;;;5.90;;
9461;SDS011;4769;42.660;23.262;2023-07-13T03:31:08;6.40;;;5.60;;
9461;SDS011;4769;42.660;23.262;2023-07-13T03:33:36;7.18;;;5.50;;
9461;SDS011;4769;42.660;23.262;2023-07-13T03:36:02;6.53;;;5.60;;
9461;SDS011;4769;42.660;23.262;2023-07-13T03:38:31;10.70;;;6.05;;
9461;SDS011;4769;42.660;23.262;2023-07-13T03:40:57;9.20;;;6.35;;
9461;SDS011;4769;42.660;23.262;2023-07-13T03:43:23;8.35;;;6.82;;
9461;SDS011;4769;42.660;23.262;2023-07-13T03:45:48;8.77;;;5.78;;
9461;SDS011;4769;42.660;23.262;2023-07-13T03:48:14;9.23;;;5.95;;
9461;SDS011;4769;42.660;23.262;2023-07-13T03:50:40;9.70;;;6.65;;
9461;SDS011;4769;42.660;23.262;2023-07-13T03:53:06;11.30;;;6.38;;
9461;SDS011;4769;42.660;23.262;2023-07-13T03:55:35;17.00;;;6.93;;
9461;SDS011;4769;42.660;23.262;2023-07-13T03:58:01;19.55;;;7.18;;
9461;SDS011;4769;42.660;23.262;2023-07-13T04:00:54;16.98;;;7.63;;
9461;SDS011;4769;42.660;23.262;2023-07-13T04:03:20;8.68;;;6.82;;
9461;SDS011;4769;42.660;23.262;2023-07-13T04:05:46;15.02;;;6.90;;
9461;SDS011;4769;42.660;23.262;2023-07-13T04:08:12;9.23;;;6.60;;
9461;SDS011;4769;42.660;23.262;2023-07-13T04:10:40;10.25;;;7.22;;
9461;SDS011;4769;42.660;23.262;2023-07-13T04:13:06;8.43;;;6.50;;
9461;SDS011;4769;42.660;23.262;2023-07-13T04:15:32;8.75;;;7.15;;
9461;SDS011;4769;42.660;23.262;2023-07-13T04:17:58;9.05;;;6.82;;
9461;SDS011;4769;42.660;23.262;2023-07-13T04:20:24;9.15;;;6.82;;
9461;SDS011;4769;42.660;23.262;2023-07-13T04:22:50;9.35;;;6.68;;
9461;SDS011;4769;42.660;23.262;2023-07-13T04:25:15;9.98;;;7.18;;
9461;SDS011;4769;42.660;23.262;2023-07-13T04:27:44;10.25;;;7.05;;
9461;SDS011;4769;42.660;23.262;2023-07-13T04:30:10;13.23;;;7.93;;
9461;SDS011;4769;42.660;23.262;2023-07-13T04:32:35;7.93;;;7.15;;
9461;SDS011;4769;42.660;23.262;2023-07-13T04:35:01;10.57;;;7.70;;
9461;SDS011;4769;42.660;23.262;2023-07-13T04:37:27;10.30;;;7.15;;
9461;SDS011;4769;42.660;23.262;2023-07-13T04:39:52;10.30;;;7.47;;
9461;SDS011;4769;42.660;23.262;2023-07-13T04:42:18;13.38;;;8.10;;
9461;SDS011;4769;42.660;23.262;2023-07-13T04:44:49;11.80;;;7.32;;
9461;SDS011;4769;42.660;23.262;2023-07-13T04:47:16;11.60;;;7.88;;
9461;SDS011;4769;42.660;23.262;2023-07-13T04:49:42;15.57;;;7.93;;
9461;SDS011;4769;42.660;23.262;2023-07-13T04:52:08;18.38;;;8.48;;
9461;SDS011;4769;42.660;23.262;2023-07-13T04:54:34;16.20;;;8.77;;
9461;SDS011;4769;42.660;23.262;2023-07-13T04:57:00;16.45;;;8.30;;
9461;SDS011;4769;42.660;23.262;2023-07-13T04:59:26;12.70;;;8.38;;
9461;SDS011;4769;42.660;23.262;2023-07-13T05:01:54;10.73;;;9.07;;
9461;SDS011;4769;42.660;23.262;2023-07-13T05:04:20;12.05;;;8.65;;
9461;SDS011;4769;42.660;23.262;2023-07-13T05:06:46;14.48;;;8.52;;
9461;SDS011;4769;42.660;23.262;2023-07-13T05:09:11;14.30;;;8.25;;
9461;SDS011;4769;42.660;23.262;2023-07-13T05:11:37;12.98;;;8.82;;
9461;SDS011;4769;42.660;23.262;2023-07-13T05:14:03;11.00;;;9.68;;
9461;SDS011;4769;42.660;23.262;2023-07-13T05:16:31;11.52;;;9.27;;
9461;SDS011;4769;42.660;23.262;2023-07-13T05:19:00;13.43;;;9.15;;
9461;SDS011;4769;42.660;23.262;2023-07-13T05:21:25;19.48;;;9.68;;
9461;SDS011;4769;42.660;23.262;2023-07-13T05:23:51;17.08;;;10.45;;
9461;SDS011;4769;42.660;23.262;2023-07-13T05:26:17;12.20;;;9.95;;
9461;SDS011;4769;42.660;23.262;2023-07-13T05:28:43;16.10;;;10.10;;
9461;SDS011;4769;42.660;23.262;2023-07-13T05:31:09;13.77;;;9.63;;
9461;SDS011;4769;42.660;23.262;2023-07-13T05:33:35;14.68;;;9.95;;
9461;SDS011;4769;42.660;23.262;2023-07-13T05:36:04;17.25;;;10.57;;
9461;SDS011;4769;42.660;23.262;2023-07-13T05:38:30;18.38;;;10.73;;
9461;SDS011;4769;42.660;23.262;2023-07-13T05:40:56;12.85;;;10.40;;
9461;SDS011;4769;42.660;23.262;2023-07-13T05:43:22;10.77;;;8.82;;
9461;SDS011;4769;42.660;23.262;2023-07-13T05:45:48;12.27;;;8.90;;
9461;SDS011;4769;42.660;23.262;2023-07-13T05:48:16;14.35;;;10.13;;
9461;SDS011;4769;42.660;23.262;2023-07-13T05:50:41;13.55;;;9.48;;
9461;SDS011;4769;42.660;23.262;2023-07-13T05:53:11;21.63;;;10.38;;
9461;SDS011;4769;42.660;23.262;2023-07-13T05:55:40;10.48;;;9.38;;
9461;SDS011;4769;42.660;23.262;2023-07-13T05:58:06;13.55;;;9.75;;
9461;SDS011;4769;42.660;23.262;2023-07-13T06:00:32;10.23;;;9.18;;
9461;SDS011;4769;42.660;23.262;2023-07-13T06:02:58;11.57;;;9.15;;
9461;SDS011;4769;42.660;23.262;2023-07-13T06:05:23;14.98;;;9.75;;
9461;SDS011;4769;42.660;23.262;2023-07-13T06:07:49;13.05;;;10.02;;
9461;SDS011;4769;42.660;23.262;2023-07-13T06:10:17;13.18;;;9.05;;
9461;SDS011;4769;42.660;23.262;2023-07-13T06:12:43;14.82;;;11.10;;
9461;SDS011;4769;42.660;23.262;2023-07-13T06:15:09;17.98;;;11.23;;
9461;SDS011;4769;42.660;23.262;2023-07-13T06:17:35;15.13;;;10.38;;
9461;SDS011;4769;42.660;23.262;2023-07-13T06:20:01;15.43;;;10.40;;
9461;SDS011;4769;42.660;23.262;2023-07-13T06:22:26;20.58;;;11.05;;
9461;SDS011;4769;42.660;23.262;2023-07-13T06:24:52;14.20;;;9.60;;
9461;SDS011;4769;42.660;23.262;2023-07-13T06:27:21;21.90;;;9.50;;
9461;SDS011;4769;42.660;23.262;2023-07-13T06:29:46;17.10;;;11.27;;
9461;SDS011;4769;42.660;23.262;2023-07-13T06:32:12;22.33;;;10.43;;
9461;SDS011;4769;42.660;23.262;2023-07-13T06:34:38;15.65;;;9.70;;
9461;SDS011;4769;42.660;23.262;2023-07-13T06:37:04;17.27;;;11.32;;
9461;SDS011;4769;42.660;23.262;2023-07-13T06:39:30;13.80;;;10.18;;
9461;SDS011;4769;42.660;23.262;2023-07-13T06:41:55;17.15;;;10.48;;
9461;SDS011;4769;42.660;23.262;2023-07-13T06:44:23;15.68;;;9.80;;
9461;SDS011;4769;42.660;23.262;2023-07-13T06:46:49;15.73;;;9.40;;
9461;SDS011;4769;42.660;23.262;2023-07-13T06:49:15;15.18;;;9.85;;
9461;SDS011;4769;42.660;23.262;2023-07-13T06:51:40;15.63;;;9.45;;
9461;SDS011;4769;42.660;23.262;2023-07-13T06:54:06;12.70;;;9.02;;
9461;SDS011;4769;42.660;23.262;2023-07-13T06:56:32;12.77;;;10.02;;
9461;SDS011;4769;42.660;23.262;2023-07-13T06:58:57;15.98;;;9.85;;
9461;SDS011;4769;42.660;23.262;2023-07-13T07:01:26;11.48;;;8.70;;
9461;SDS011;4769;42.660;23.262;2023-07-13T07:03:51;10.98;;;8.13;;
9461;SDS011;4769;42.660;23.262;2023-07-13T07:06:18;14.15;;;8.82;;
9461;SDS011;4769;42.660;23.262;2023-07-13T07:08:46;10.57;;;8.35;;
9461;SDS011;4769;42.660;23.262;2023-07-13T07:11:12;13.30;;;9.15;;
9461;SDS011;4769;42.660;23.262;2023-07-13T07:13:39;11.15;;;8.35;;
9461;SDS011;4769;42.660;23.262;2023-07-13T07:16:05;11.82;;;8.40;;
9461;SDS011;4769;42.660;23.262;2023-07-13T07:18:33;8.95;;;7.82;;
9461;SDS011;4769;42.660;23.262;2023-07-13T07:20:59;12.02;;;8.52;;
9461;SDS011;4769;42.660;23.262;2023-07-13T07:23:25;13.75;;;9.00;;
9461;SDS011;4769;42.660;23.262;2023-07-13T07:25:51;12.20;;;8.77;;
9461;SDS011;4769;42.660;23.262;2023-07-13T07:28:17;13.00;;;8.98;;
9461;SDS011;4769;42.660;23.262;2023-07-13T07:30:42;10.20;;;8.73;;
9461;SDS011;4769;42.660;23.262;2023-07-13T07:33:08;13.38;;;9.55;;
9461;SDS011;4769;42.660;23.262;2023-07-13T07:35:37;11.65;;;8.90;;
9461;SDS011;4769;42.660;23.262;2023-07-13T07:38:03;17.58;;;9.25;;
9461;SDS011;4769;42.660;23.262;2023-07-13T07:40:29;12.23;;;8.73;;
9461;SDS011;4769;42.660;23.262;2023-07-13T07:42:55;14.82;;;9.88;;
9461;SDS011;4769;42.660;23.262;2023-07-13T07:45:20;12.73;;;8.85;;
9461;SDS011;4769;42.660;23.262;2023-07-13T07:47:46;12.38;;;8.70;;
9461;SDS011;4769;42.660;23.262;2023-07-13T07:50:12;14.82;;;8.80;;
9461;SDS011;4769;42.660;23.262;2023-07-13T07:52:41;11.57;;;8.55;;
9461;SDS011;4769;42.660;23.262;2023-07-13T07:55:07;13.15;;;8.43;;
9461;SDS011;4769;42.660;23.262;2023-07-13T07:57:33;12.43;;;9.52;;
9461;SDS011;4769;42.660;23.262;2023-07-13T07:59:58;14.02;;;8.57;;
9461;SDS011;4769;42.660;23.262;2023-07-13T08:02:24;11.90;;;8.80;;
9461;SDS011;4769;42.660;23.262;2023-07-13T08:04:50;13.65;;;8.95;;
9461;SDS011;4769;42.660;23.262;2023-07-13T08:07:16;14.35;;;8.95;;
9461;SDS011;4769;42.660;23.262;2023-07-13T08:09:45;11.68;;;8.90;;
9461;SDS011;4769;42.660;23.262;2023-07-13T08:12:11;10.90;;;8.30;;
9461;SDS011;4769;42.660;23.262;2023-07-13T08:14:36;15.00;;;8.98;;
9461;SDS011;4769;42.660;23.262;2023-07-13T08:17:02;13.13;;;8.23;;
9461;SDS011;4769;42.660;23.262;2023-07-13T08:19:28;13.90;;;8.10;;
9461;SDS011;4769;42.660;23.262;2023-07-13T08:21:54;15.25;;;8.35;;
9461;SDS011;4769;42.660;23.262;2023-07-13T08:24:21;14.20;;;9.10;;
9461;SDS011;4769;42.660;23.262;2023-07-13T08:26:50;15.57;;;8.68;;
9461;SDS011;4769;42.660;23.262;2023-07-13T08:29:15;12.55;;;8.57;;
9461;SDS011;4769;42.660;23.262;2023-07-13T08:31:41;11.82;;;7.93;;
9461;SDS011;4769;42.660;23.262;2023-07-13T08:34:07;12.68;;;8.80;;
9461;SDS011;4769;42.660;23.262;2023-07-13T08:36:32;19.38;;;8.65;;
9461;SDS011;4769;42.660;23.262;2023-07-13T08:38:58;12.32;;;8.95;;
9461;SDS011;4769;42.660;23.262;2023-07-13T08:41:24;14.07;;;9.05;;
9461;SDS011;4769;42.660;23.262;2023-07-13T08:43:54;10.55;;;8.57;;
9461;SDS011;4769;42.660;23.262;2023-07-13T08:46:24;15.98;;;8.48;;
9461;SDS011;4769;42.660;23.262;2023-07-13T08:48:55;9.27;;;7.53;;
9461;SDS011;4769;42.660;23.262;2023-07-13T08:51:33;14.82;;;8.40;;
9461;SDS011;4769;42.660;23.262;2023-07-13T08:54:08;14.52;;;8.02;;
9461;SDS011;4769;42.660;23.262;2023-07-13T08:56:43;12.45;;;7.82;;
9461;SDS011;4769;42.660;23.262;2023-07-13T08:59:15;11.40;;;7.32;;
9461;SDS011;4769;42.660;23.262;2023-07-13T09:01:46;10.13;;;8.00;;
9461;SDS011;4769;42.660;23.262;2023-07-13T09:04:22;17.75;;;8.02;;
9461;SDS011;4769;42.660;23.262;2023-07-13T09:06:55;11.57;;;7.72;;
9461;SDS011;4769;42.660;23.262;2023-07-13T09:09:27;11.95;;;7.72;;
9461;SDS011;4769;42.660;23.262;2023-07-13T09:12:02;10.98;;;8.02;;
9461;SDS011;4769;42.660;23.262;2023-07-13T09:14:44;12.52;;;7.97;;
9461;SDS011;4769;42.660;23.262;2023-07-13T09:17:16;13.38;;;8.57;;
9461;SDS011;4769;42.660;23.262;2023-07-13T09:19:43;8.88;;;7.95;;
9461;SDS011;4769;42.660;23.262;2023-07-13T09:22:17;10.15;;;8.18;;
9461;SDS011;4769;42.660;23.262;2023-07-13T09:24:50;10.98;;;7.88;;
9461;SDS011;4769;42.660;23.262;2023-07-13T09:27:21;11.45;;;8.15;;
9461;SDS011;4769;42.660;23.262;2023-07-13T09:30:02;14.60;;;8.45;;
9461;SDS011;4769;42.660;23.262;2023-07-13T09:32:49;9.98;;;8.27;;
9461;SDS011;4769;42.660;23.262;2023-07-13T09:35:18;10.57;;;8.00;;
9461;SDS011;4769;42.660;23.262;2023-07-13T09:37:46;13.57;;;8.00;;
9461;SDS011;4769;42.660;23.262;2023-07-13T09:40:13;12.20;;;7.90;;
9461;SDS011;4769;42.660;23.262;2023-07-13T09:42:46;15.73;;;8.55;;
9461;SDS011;4769;42.660;23.262;2023-07-13T09:45:15;10.77;;;7.85;;
9461;SDS011;4769;42.660;23.262;2023-07-13T09:47:53;11.88;;;7.53;;
9461;SDS011;4769;42.660;23.262;2023-07-13T09:50:25;13.20;;;7.20;;
9461;SDS011;4769;42.660;23.262;2023-07-13T09:52:50;8.50;;;6.13;;
9461;SDS011;4769;42.660;23.262;2023-07-13T09:55:23;6.70;;;4.93;;
9461;SDS011;4769;42.660;23.262;2023-07-13T09:57:50;7.53;;;4.80;;
9461;SDS011;4769;42.660;23.262;2023-07-13T10:00:23;7.72;;;5.28;;
9461;SDS011;4769;42.660;23.262;2023-07-13T10:03:01;8.18;;;5.18;;
9461;SDS011;4769;42.660;23.262;2023-07-13T10:05:28;7.63;;;5.30;;
9461;SDS011;4769;42.660;23.262;2023-07-13T10:08:02;15.68;;;6.18;;
9461;SDS011;4769;42.660;23.262;2023-07-13T10:10:28;13.18;;;5.97;;
9461;SDS011;4769;42.660;23.262;2023-07-13T10:12:54;12.07;;;6.53;;
9461;SDS011;4769;42.660;23.262;2023-07-13T10:15:23;11.77;;;5.50;;
9461;SDS011;4769;42.660;23.262;2023-07-13T10:17:50;8.43;;;5.80;;
9461;SDS011;4769;42.660;23.262;2023-07-13T10:20:16;7.75;;;5.13;;
9461;SDS011;4769;42.660;23.262;2023-07-13T10:22:44;7.03;;;4.80;;
9461;SDS011;4769;42.660;23.262;2023-07-13T10:25:16;6.30;;;5.32;;
9461;SDS011;4769;42.660;23.262;2023-07-13T10:27:44;9.95;;;5.45;;
9461;SDS011;4769;42.660;23.262;2023-07-13T10:30:12;7.25;;;4.88;;
9461;SDS011;4769;42.660;23.262;2023-07-13T10:32:45;5.88;;;5.15;;
9461;SDS011;4769;42.660;23.262;2023-07-13T10:35:13;7.65;;;5.03;;
9461;SDS011;4769;42.660;23.262;2023-07-13T10:37:43;8.43;;;5.38;;
9461;SDS011;4769;42.660;23.262;2023-07-13T10:40:13;9.95;;;5.93;;
9461;SDS011;4769;42.660;23.262;2023-07-13T10:42:43;11.02;;;5.93;;
9461;SDS011;4769;42.660;23.262;2023-07-13T10:45:13;6.35;;;5.30;;
9461;SDS011;4769;42.660;23.262;2023-07-13T10:47:40;6.30;;;5.13;;
9461;SDS011;4769;42.660;23.262;2023-07-13T10:50:11;7.65;;;4.85;;
9461;SDS011;4769;42.660;23.262;2023-07-13T10:52:43;9.18;;;5.18;;
9461;SDS011;4769;42.660;23.262;2023-07-13T10:57:59;6.05;;;5.45;;
9461;SDS011;4769;42.660;23.262;2023-07-13T11:00:26;9.35;;;6.03;;
9461;SDS011;4769;42.660;23.262;2023-07-13T11:02:56;11.70;;;5.72;;
9461;SDS011;4769;42.660;23.262;2023-07-13T11:05:28;7.82;;;5.40;;
9461;SDS011;4769;42.660;23.262;2023-07-13T11:07:56;9.25;;;4.82;;
9461;SDS011;4769;42.660;23.262;2023-07-13T11:16:02;7.07;;;5.72;;
9461;SDS011;4769;42.660;23.262;2023-07-13T11:18:38;8.20;;;5.45;;
9461;SDS011;4769;42.660;23.262;2023-07-13T11:21:16;8.88;;;5.72;;
9461;SDS011;4769;42.660;23.262;2023-07-13T11:23:43;7.63;;;5.30;;
9461;SDS011;4769;42.660;23.262;2023-07-13T11:29:14;12.75;;;6.82;;
9461;SDS011;4769;42.660;23.262;2023-07-13T11:31:51;8.90;;;6.05;;
9461;SDS011;4769;42.660;23.262;2023-07-13T11:34:21;7.97;;;5.82;;
9461;SDS011;4769;42.660;23.262;2023-07-13T11:36:54;8.77;;;5.80;;
9461;SDS011;4769;42.660;23.262;2023-07-13T11:39:24;8.38;;;5.93;;
9461;SDS011;4769;42.660;23.262;2023-07-13T11:41:57;9.63;;;6.13;;
9461;SDS011;4769;42.660;23.262;2023-07-13T11:44:26;13.27;;;5.82;;
9461;SDS011;4769;42.660;23.262;2023-07-13T11:46:54;7.07;;;5.43;;
9461;SDS011;4769;42.660;23.262;2023-07-13T11:49:22;18.67;;;7.25;;
9461;SDS011;4769;42.660;23.262;2023-07-13T11:51:49;9.27;;;5.35;;
9461;SDS011;4769;42.660;23.262;2023-07-13T11:54:21;10.85;;;6.35;;
9461;SDS011;4769;42.660;23.262;2023-07-13T11:56:50;12.07;;;5.85;;
9461;SDS011;4769;42.660;23.262;2023-07-13T11:59:15;9.07;;;5.15;;
9461;SDS011;4769;42.660;23.262;2023-07-13T12:01:44;8.90;;;5.25;;
9461;SDS011;4769;42.660;23.262;2023-07-13T12:04:20;8.98;;;5.13;;
9461;SDS011;4769;42.660;23.262;2023-07-13T12:06:52;9.40;;;5.50;;
9461;SDS011;4769;42.660;23.262;2023-07-13T12:09:25;9.15;;;5.40;;
9461;SDS011;4769;42.660;23.262;2023-07-13T12:11:53;10.85;;;5.43;;
9461;SDS011;4769;42.660;23.262;2023-07-13T12:14:19;9.85;;;5.00;;
9461;SDS011;4769;42.660;23.262;2023-07-13T12:16:45;7.55;;;5.30;;
9461;SDS011;4769;42.660;23.262;2023-07-13T12:19:15;6.55;;;4.90;;
9461;SDS011;4769;42.660;23.262;2023-07-13T12:21:43;8.68;;;5.13;;
9461;SDS011;4769;42.660;23.262;2023-07-13T12:24:13;8.55;;;5.20;;
9461;SDS011;4769;42.660;23.262;2023-07-13T12:26:42;7.22;;;5.15;;
9461;SDS011;4769;42.660;23.262;2023-07-13T12:29:11;9.85;;;5.38;;
9461;SDS011;4769;42.660;23.262;2023-07-13T12:31:42;9.20;;;5.38;;
9461;SDS011;4769;42.660;23.262;2023-07-13T12:34:10;11.27;;;5.25;;
9461;SDS011;4769;42.660;23.262;2023-07-13T12:36:37;8.98;;;5.40;;
9461;SDS011;4769;42.660;23.262;2023-07-13T12:39:15;8.07;;;5.57;;
9461;SDS011;4769;42.660;23.262;2023-07-13T12:41:46;12.85;;;6.10;;
9461;SDS011;4769;42.660;23.262;2023-07-13T12:44:14;9.00;;;5.05;;
9461;SDS011;4769;42.660;23.262;2023-07-13T12:46:50;9.10;;;5.63;;
9461;SDS011;4769;42.660;23.262;2023-07-13T12:49:18;11.68;;;5.13;;
9461;SDS011;4769;42.660;23.262;2023-07-13T12:51:49;10.63;;;5.30;;
9461;SDS011;4769;42.660;23.262;2023-07-13T12:54:20;7.30;;;4.70;;
9461;SDS011;4769;42.660;23.262;2023-07-13T12:56:51;10.02;;;5.10;;
9461;SDS011;4769;42.660;23.262;2023-07-13T12:59:20;9.43;;;5.40;;
9461;SDS011;4769;42.660;23.262;2023-07-13T13:01:47;9.55;;;5.40;;
9461;SDS011;4769;42.660;23.262;2023-07-13T13:04:14;9.55;;;5.00;;
9461;SDS011;4769;42.660;23.262;2023-07-13T13:06:41;6.80;;;4.78;;
9461;SDS011;4769;42.660;23.262;2023-07-13T13:09:09;10.40;;;5.32;;
9461;SDS011;4769;42.660;23.262;2023-07-13T13:11:37;9.23;;;5.20;;
9461;SDS011;4769;42.660;23.262;2023-07-13T13:14:07;8.00;;;5.57;;
9461;SDS011;4769;42.660;23.262;2023-07-13T13:16:34;7.85;;;5.85;;
9461;SDS011;4769;42.660;23.262;2023-07-13T13:19:05;9.10;;;5.35;;
9461;SDS011;4769;42.660;23.262;2023-07-13T13:21:39;8.23;;;5.25;;
9461;SDS011;4769;42.660;23.262;2023-07-13T13:24:08;8.63;;;4.90;;
9461;SDS011;4769;42.660;23.262;2023-07-13T13:26:36;8.18;;;5.15;;
9461;SDS011;4769;42.660;23.262;2023-07-13T13:29:04;9.40;;;5.15;;
9461;SDS011;4769;42.660;23.262;2023-07-13T13:31:37;9.98;;;5.32;;
9461;SDS011;4769;42.660;23.262;2023-07-13T13:34:06;14.85;;;5.65;;
9461;SDS011;4769;42.660;23.262;2023-07-13T13:36:33;13.88;;;5.13;;
9461;SDS011;4769;42.660;23.262;2023-07-13T13:39:02;10.43;;;5.25;;
9461;SDS011;4769;42.660;23.262;2023-07-13T13:41:30;10.68;;;5.32;;
9461;SDS011;4769;42.660;23.262;2023-07-13T13:43:56;10.02;;;5.93;;
9461;SDS011;4769;42.660;23.262;2023-07-13T13:46:25;8.75;;;5.00;;
9461;SDS011;4769;42.660;23.262;2023-07-13T13:48:51;8.63;;;5.03;;
9461;SDS011;4769;42.660;23.262;2023-07-13T13:51:18;11.23;;;5.05;;
9461;SDS011;4769;42.660;23.262;2023-07-13T13:53:45;8.35;;;4.85;;
9461;SDS011;4769;42.660;23.262;2023-07-13T13:56:11;8.15;;;4.85;;
9461;SDS011;4769;42.660;23.262;2023-07-13T13:58:38;8.30;;;5.35;;
9461;SDS011;4769;42.660;23.262;2023-07-13T14:01:04;10.40;;;5.40;;
9461;SDS011;4769;42.660;23.262;2023-07-13T14:03:32;9.85;;;5.13;;
9461;SDS011;4769;42.660;23.262;2023-07-13T14:05:58;8.63;;;5.20;;
9461;SDS011;4769;42.660;23.262;2023-07-13T14:08:24;8.18;;;5.20;;
9461;SDS011;4769;42.660;23.262;2023-07-13T14:10:51;8.25;;;5.43;;
9461;SDS011;4769;42.660;23.262;2023-07-13T14:13:20;10.02;;;5.50;;
9461;SDS011;4769;42.660;23.262;2023-07-13T14:15:48;7.28;;;5.15;;
9461;SDS011;4769;42.660;23.262;2023-07-13T14:18:14;8.07;;;5.00;;
9461;SDS011;4769;42.660;23.262;2023-07-13T14:20:42;8.45;;;5.20;;
9461;SDS011;4769;42.660;23.262;2023-07-13T14:23:08;9.90;;;5.88;;
9461;SDS011;4769;42.660;23.262;2023-07-13T14:25:34;14.30;;;6.70;;
9461;SDS011;4769;42.660;23.262;2023-07-13T14:28:04;14.10;;;6.18;;
9461;SDS011;4769;42.660;23.262;2023-07-13T14:30:42;24.70;;;8.10;;
9461;SDS011;4769;42.660;23.262;2023-07-13T14:33:08;16.73;;;6.80;;
9461;SDS011;4769;42.660;23.262;2023-07-13T14:35:34;10.60;;;6.18;;
9461;SDS011;4769;42.660;23.262;2023-07-13T14:38:03;13.43;;;5.63;;
9461;SDS011;4769;42.660;23.262;2023-07-13T14:40:29;12.45;;;6.43;;
9461;SDS011;4769;42.660;23.262;2023-07-13T14:42:56;11.15;;;5.82;;
9461;SDS011;4769;42.660;23.262;2023-07-13T14:45:22;9.10;;;5.45;;
9461;SDS011;4769;42.660;23.262;2023-07-13T14:47:49;13.70;;;6.00;;
9461;SDS011;4769;42.660;23.262;2023-07-13T14:50:15;9.30;;;5.75;;
9461;SDS011;4769;42.660;23.262;2023-07-13T14:52:42;10.95;;;5.82;;
9461;SDS011;4769;42.660;23.262;2023-07-13T14:55:12;8.88;;;5.47;;
9461;SDS011;4769;42.660;23.262;2023-07-13T14:57:42;11.90;;;5.50;;
9461;SDS011;4769;42.660;23.262;2023-07-13T15:00:17;10.73;;;5.57;;
9461;SDS011;4769;42.660;23.262;2023-07-13T15:02:46;10.13;;;4.97;;
9461;SDS011;4769;42.660;23.262;2023-07-13T15:05:15;13.40;;;6.20;;
9461;SDS011;4769;42.660;23.262;2023-07-13T15:07:43;11.57;;;5.65;;